Time;durP1;ratioP1;P1;durP2;ratioP2;P2;SDS_P1;SDS_P2;PMS_P1;PMS_P2;Temp;Humidity;BMP_temperature;BMP_pressure;BME280_temperature;BME280_humidity;BME280_pressure;Samples;Min_cycle;Max_cycle;Signal;HPM_P1;HPM_P2
2022/12/13 00:02:56;;;;;;;28.47;17.03;;;-2.90;99.90;;;;;;10447374;28;20277;-77
2022/12/13 00:07:58;;;;;;;28.67;16.17;;;-2.80;99.90;;;;;;10434214;28;20220;-76
2022/12/13 00:12:59;;;;;;;29.60;17.53;;;-2.80;99.90;;;;;;10434672;28;20220;-77
2022/12/13 00:17:59;;;;;;;32.63;17.77;;;-2.80;99.90;;;;;;10433751;28;20273;-74
2022/12/13 00:23:00;;;;;;;30.93;18.07;;;-2.70;99.90;;;;;;10436060;28;20366;-77
2022/12/13 00:28:00;;;;;;;29.60;16.30;;;-2.70;99.90;;;;;;10433864;28;20273;-76
2022/12/13 00:33:01;;;;;;;31.90;18.10;;;-2.80;99.90;;;;;;10435201;28;20326;-76
2022/12/13 00:38:01;;;;;;;33.20;17.17;;;-2.90;99.90;;;;;;10432547;28;20220;-76
2022/12/13 00:43:02;;;;;;;31.90;17.07;;;-3.00;99.90;;;;;;10433371;28;20304;-77
2022/12/13 00:48:04;;;;;;;29.20;16.97;;;-2.90;99.90;;;;;;10428769;28;20754;-77
2022/12/13 00:53:05;;;;;;;27.37;15.57;;;-2.90;99.90;;;;;;10433067;28;20271;-77
2022/12/13 00:58:06;;;;;;;30.57;16.27;;;-3.00;99.90;;;;;;10434088;28;20315;-77
2022/12/13 01:03:19;;;;;;;27.73;15.07;;;-3.00;99.90;;;;;;10437705;28;20363;-77
2022/12/13 01:08:19;;;;;;;29.77;16.17;;;-3.00;99.90;;;;;;10436976;28;20250;-76
2022/12/13 01:13:20;;;;;;;27.60;15.80;;;-3.10;99.90;;;;;;10436358;28;20216;-77
2022/12/13 01:18:21;;;;;;;32.43;17.07;;;-3.20;99.90;;;;;;10434415;28;20216;-77
2022/12/13 01:23:22;;;;;;;29.43;16.30;;;-3.20;99.90;;;;;;10430169;28;20225;-78
2022/12/13 01:28:23;;;;;;;24.93;15.07;;;-3.30;99.90;;;;;;10433064;28;20211;-77
2022/12/13 01:33:24;;;;;;;31.87;16.97;;;-3.40;99.90;;;;;;10436351;28;20223;-76
2022/12/13 01:38:29;;;;;;;28.57;16.20;;;-3.30;99.90;;;;;;10436435;28;20219;-76
2022/12/13 01:43:36;;;;;;;32.13;17.47;;;-3.40;99.90;;;;;;10435931;28;20239;-76
2022/12/13 01:48:59;;;;;;;29.20;16.70;;;-3.40;99.90;;;;;;10446816;28;20222;-75
2022/12/13 01:54:02;;;;;;;30.97;16.70;;;-3.40;99.90;;;;;;10436854;28;20929;-76
2022/12/13 01:59:05;;;;;;;29.57;17.20;;;-3.40;99.90;;;;;;10439524;28;20221;-76
2022/12/13 02:04:06;;;;;;;31.80;17.20;;;-3.50;99.90;;;;;;10435412;28;20271;-77
2022/12/13 02:09:08;;;;;;;30.23;16.83;;;-3.50;99.90;;;;;;10426644;28;20307;-74
2022/12/13 02:14:09;;;;;;;33.03;16.13;;;-3.60;99.90;;;;;;10430159;28;20262;-77
2022/12/13 02:19:28;;;;;;;32.33;17.77;;;-3.70;99.90;;;;;;10430588;28;20263;-76
2022/12/13 02:24:59;;;;;;;29.83;16.33;;;-3.70;99.90;;;;;;10430942;28;20227;-76
2022/12/13 02:30:21;;;;;;;32.93;16.47;;;-3.70;99.90;;;;;;10427491;28;20317;-77
2022/12/13 02:35:50;;;;;;;31.20;16.33;;;-3.70;99.90;;;;;;10420045;28;20216;-75
2022/12/13 02:40:59;;;;;;;34.27;17.37;;;-3.70;99.90;;;;;;10427299;28;20328;-75
2022/12/13 02:46:01;;;;;;;31.70;16.43;;;-3.80;99.90;;;;;;10430421;28;20248;-76
2022/12/13 02:51:04;;;;;;;28.87;15.67;;;-3.80;99.90;;;;;;10428395;28;20211;-77
2022/12/13 02:56:05;;;;;;;27.90;16.30;;;-3.80;99.90;;;;;;10429035;28;20266;-77
2022/12/13 03:01:43;;;;;;;32.43;16.80;;;-3.80;99.90;;;;;;10434105;28;20250;-76
2022/12/13 03:07:13;;;;;;;33.10;16.93;;;-4.00;99.90;;;;;;10439244;28;20677;-77
2022/12/13 03:18:14;;;;;;;32.83;16.77;;;-4.00;99.90;;;;;;10440369;28;20220;-77
2022/12/13 03:23:17;;;;;;;36.50;18.23;;;-4.00;99.90;;;;;;10432027;28;20311;-76
2022/12/13 03:28:18;;;;;;;30.47;15.80;;;-4.00;99.90;;;;;;10437859;28;20270;-76
2022/12/13 03:33:19;;;;;;;36.23;17.67;;;-4.10;99.90;;;;;;10434943;28;20216;-76
2022/12/13 03:38:19;;;;;;;31.03;16.80;;;-4.00;99.90;;;;;;10438100;28;20235;-76
2022/12/13 03:43:20;;;;;;;34.50;17.70;;;-4.00;99.90;;;;;;10433544;28;20235;-76
2022/12/13 03:48:22;;;;;;;30.17;17.53;;;-4.00;99.90;;;;;;10438417;28;20780;-77
2022/12/13 03:53:23;;;;;;;35.60;17.67;;;-4.00;99.90;;;;;;10438110;28;20227;-75
2022/12/13 03:58:24;;;;;;;31.60;17.60;;;-4.10;99.90;;;;;;10442540;28;20234;-76
2022/12/13 04:03:24;;;;;;;34.53;17.23;;;-4.10;99.90;;;;;;10428415;28;20267;-75
2022/12/13 04:08:25;;;;;;;34.27;18.63;;;-4.20;99.90;;;;;;10440274;28;20216;-77
2022/12/13 04:13:31;;;;;;;33.83;18.00;;;-4.20;99.90;;;;;;10437395;28;20216;-77
2022/12/13 04:18:32;;;;;;;33.40;17.40;;;-4.30;99.90;;;;;;10432567;28;20227;-75
2022/12/13 04:23:32;;;;;;;36.73;18.43;;;-4.30;99.90;;;;;;10437342;28;20312;-76
2022/12/13 04:28:33;;;;;;;35.67;17.87;;;-4.30;99.90;;;;;;10430303;28;20213;-76
2022/12/13 04:33:34;;;;;;;35.50;18.47;;;-4.30;99.90;;;;;;10438686;28;20391;-76
2022/12/13 04:38:36;;;;;;;38.03;18.83;;;-4.30;99.90;;;;;;10437452;28;20227;-76
2022/12/13 04:43:37;;;;;;;35.83;18.40;;;-4.30;99.90;;;;;;10429845;28;20227;-77
2022/12/13 04:48:37;;;;;;;37.37;19.27;;;-4.30;99.90;;;;;;10431416;28;20268;-76
2022/12/13 04:53:38;;;;;;;37.93;18.30;;;-4.30;99.90;;;;;;10438088;28;20216;-76
2022/12/13 04:58:38;;;;;;;38.20;19.77;;;-4.30;99.90;;;;;;10438323;28;20249;-76
2022/12/13 05:03:42;;;;;;;38.57;18.17;;;-4.30;99.90;;;;;;10430034;28;20225;-76
2022/12/13 05:08:42;;;;;;;40.53;18.30;;;-4.30;99.90;;;;;;10438328;28;20695;-73
2022/12/13 05:13:43;;;;;;;38.77;19.20;;;-4.30;99.90;;;;;;10430102;28;20228;-76
2022/12/13 05:18:43;;;;;;;38.53;18.77;;;-4.40;99.90;;;;;;10437020;28;20219;-75
2022/12/13 05:23:44;;;;;;;39.37;18.10;;;-4.40;99.90;;;;;;10430267;28;20311;-76
2022/12/13 05:28:45;;;;;;;41.23;19.57;;;-4.50;99.90;;;;;;10438502;28;20373;-74
2022/12/13 05:33:45;;;;;;;41.13;19.07;;;-4.60;99.90;;;;;;10429225;28;20603;-75
2022/12/13 05:38:46;;;;;;;34.70;18.37;;;-4.60;99.90;;;;;;10430364;28;20220;-75
2022/12/13 05:43:46;;;;;;;35.20;18.00;;;-4.60;99.90;;;;;;10434559;28;20640;-76
2022/12/13 05:48:47;;;;;;;36.10;18.13;;;-4.70;99.90;;;;;;10430358;28;20685;-77
2022/12/13 05:53:47;;;;;;;37.20;16.67;;;-4.70;99.90;;;;;;10442716;28;20907;-75
2022/12/13 05:58:48;;;;;;;34.80;17.40;;;-4.80;99.90;;;;;;10427720;28;20215;-75
2022/12/13 06:03:49;;;;;;;38.80;18.30;;;-4.80;99.90;;;;;;10426384;28;20234;-74
2022/12/13 06:08:49;;;;;;;39.23;18.07;;;-4.80;99.90;;;;;;10428474;28;20216;-76
2022/12/13 06:13:51;;;;;;;36.40;18.33;;;-4.90;99.90;;;;;;10433806;28;20722;-76
2022/12/13 06:18:52;;;;;;;33.50;16.53;;;-4.90;99.90;;;;;;10428867;28;20221;-77
2022/12/13 06:23:53;;;;;;;33.23;17.33;;;-4.90;99.90;;;;;;10432207;28;20228;-75
2022/12/13 06:28:54;;;;;;;35.53;16.40;;;-4.90;99.90;;;;;;10434757;28;20226;-75
2022/12/13 06:33:54;;;;;;;33.40;16.87;;;-4.90;99.90;;;;;;10427526;28;20324;-76
2022/12/13 06:38:55;;;;;;;33.17;15.73;;;-5.00;99.90;;;;;;10432980;28;20322;-76
2022/12/13 06:43:55;;;;;;;31.57;16.27;;;-5.00;99.90;;;;;;10428561;28;20240;-77
2022/12/13 06:48:56;;;;;;;32.87;16.70;;;-5.00;99.90;;;;;;10432977;28;20238;-77
2022/12/13 06:53:56;;;;;;;33.53;16.40;;;-4.90;99.90;;;;;;10427641;28;20228;-73
2022/12/13 06:58:57;;;;;;;34.00;15.90;;;-4.90;99.90;;;;;;10431167;28;20231;-76
2022/12/13 07:03:58;;;;;;;37.50;17.70;;;-5.00;99.90;;;;;;10439590;28;20307;-76
2022/12/13 07:08:58;;;;;;;31.40;17.07;;;-5.00;99.90;;;;;;10431682;28;20303;-74
2022/12/13 07:13:59;;;;;;;32.10;16.93;;;-5.00;99.90;;;;;;10433375;28;20256;-76
2022/12/13 07:19:01;;;;;;;35.33;16.90;;;-5.00;99.90;;;;;;10428085;28;20226;-76
2022/12/13 07:24:02;;;;;;;31.13;16.07;;;-5.00;99.90;;;;;;10425729;28;20318;-76
2022/12/13 07:29:03;;;;;;;30.90;16.63;;;-5.00;99.90;;;;;;10437588;28;20735;-75
2022/12/13 07:34:04;;;;;;;32.00;16.80;;;-4.90;99.90;;;;;;10428918;28;20254;-76
2022/12/13 07:39:04;;;;;;;35.70;17.23;;;-4.80;99.90;;;;;;10429251;28;20625;-76
2022/12/13 07:44:05;;;;;;;32.97;16.33;;;-4.80;99.90;;;;;;10428094;28;20220;-76
2022/12/13 07:49:06;;;;;;;32.30;17.07;;;-4.70;99.90;;;;;;10441328;28;20224;-76
2022/12/13 07:54:07;;;;;;;36.83;17.13;;;-4.60;99.90;;;;;;10443736;28;20369;-76
2022/12/13 07:59:09;;;;;;;30.90;16.03;;;-4.50;99.90;;;;;;10435106;28;20691;-76
2022/12/13 08:04:09;;;;;;;32.70;15.93;;;-4.40;99.90;;;;;;10442757;28;20603;-76
2022/12/13 08:09:10;;;;;;;34.73;16.60;;;-4.40;99.90;;;;;;10435770;28;20322;-76
2022/12/13 08:14:10;;;;;;;34.33;16.83;;;-4.30;99.90;;;;;;10434324;28;20225;-76
2022/12/13 08:19:11;;;;;;;33.53;17.07;;;-4.20;99.90;;;;;;10436320;28;20287;-77
2022/12/13 08:24:13;;;;;;;34.27;16.57;;;-4.10;99.90;;;;;;10435090;28;20247;-77
2022/12/13 08:29:14;;;;;;;33.30;17.27;;;-4.00;99.90;;;;;;10434435;28;20250;-78
2022/12/13 08:34:15;;;;;;;32.00;16.47;;;-3.90;99.90;;;;;;10432873;28;20232;-75
2022/12/13 08:39:18;;;;;;;32.77;16.47;;;-3.80;99.90;;;;;;10431342;28;20220;-76
2022/12/13 08:44:18;;;;;;;30.50;16.03;;;-3.40;99.90;;;;;;10430887;28;20307;-75
2022/12/13 08:49:25;;;;;;;27.70;15.17;;;-2.00;99.90;;;;;;10435210;28;20310;-77
2022/12/13 08:54:26;;;;;;;28.90;14.97;;;-0.70;99.90;;;;;;10441917;28;20224;-74
2022/12/13 08:59:26;;;;;;;24.33;14.23;;;1.20;99.90;;;;;;10437441;28;20228;-75
2022/12/13 09:04:27;;;;;;;20.70;13.53;;;3.80;99.90;;;;;;10431015;28;20266;-77
2022/12/13 09:09:28;;;;;;;24.23;14.70;;;6.40;99.90;;;;;;10438569;28;20803;-76
2022/12/13 09:14:29;;;;;;;22.97;15.30;;;7.20;96.80;;;;;;10437776;28;20219;-77
2022/12/13 09:19:30;;;;;;;23.70;16.17;;;7.60;91.60;;;;;;10430819;28;20234;-77
2022/12/13 09:24:31;;;;;;;23.63;16.37;;;8.10;88.40;;;;;;10426437;28;20233;-75
2022/12/13 09:29:33;;;;;;;22.63;16.40;;;7.10;88.10;;;;;;10436372;28;20300;-78
2022/12/13 09:34:33;;;;;;;21.60;15.40;;;6.90;90.00;;;;;;10435208;28;20231;-77
2022/12/13 09:39:34;;;;;;;24.27;16.07;;;7.60;88.50;;;;;;10429588;28;20404;-77
2022/12/13 09:44:39;;;;;;;21.27;15.73;;;7.60;85.50;;;;;;10433930;28;20228;-77
2022/12/13 09:49:43;;;;;;;23.37;16.67;;;7.00;87.20;;;;;;10446110;28;20216;-78
2022/12/13 09:54:44;;;;;;;23.87;15.83;;;6.80;88.10;;;;;;10428423;28;20237;-77
2022/12/13 09:59:46;;;;;;;22.27;14.80;;;6.50;89.40;;;;;;10439060;28;20263;-76
2022/12/13 10:04:47;;;;;;;21.70;15.30;;;6.50;88.70;;;;;;10442446;28;20212;-77
2022/12/13 10:09:51;;;;;;;20.83;14.67;;;6.10;90.60;;;;;;10434701;28;20221;-76
2022/12/13 10:14:59;;;;;;;21.27;14.63;;;7.30;87.60;;;;;;10428099;28;20294;-77
2022/12/13 10:20:00;;;;;;;22.13;15.30;;;8.40;80.40;;;;;;10430565;28;20317;-77
2022/12/13 10:25:03;;;;;;;22.10;15.13;;;8.70;78.80;;;;;;10428792;28;20759;-77
2022/12/13 10:30:07;;;;;;;21.80;14.63;;;8.60;78.70;;;;;;10432012;28;20228;-78
2022/12/13 10:35:19;;;;;;;20.17;14.57;;;8.50;77.50;;;;;;10429977;28;20257;-76
2022/12/13 10:40:34;;;;;;;20.57;14.10;;;9.70;74.20;;;;;;10429112;28;20265;-77
2022/12/13 10:45:35;;;;;;;21.47;14.17;;;9.70;72.60;;;;;;10433955;28;20844;-78
2022/12/13 10:50:36;;;;;;;19.00;13.57;;;9.30;72.60;;;;;;10433508;28;20233;-77
2022/12/13 10:55:39;;;;;;;18.47;13.53;;;9.80;71.60;;;;;;10426020;28;20234;-78
2022/12/13 11:00:45;;;;;;;15.90;12.60;;;10.30;69.50;;;;;;10433764;28;20724;-78
2022/12/13 11:06:00;;;;;;;17.37;12.73;;;10.90;67.00;;;;;;10425948;28;20236;-77
2022/12/13 11:11:02;;;;;;;19.80;13.53;;;10.30;66.30;;;;;;10429331;28;20334;-77
2022/12/13 11:16:37;;;;;;;17.53;12.53;;;9.50;67.30;;;;;;10433221;28;20223;-77
2022/12/13 11:21:38;;;;;;;18.90;12.93;;;6.10;76.90;;;;;;10437290;28;20228;-77
2022/12/13 11:26:41;;;;;;;19.47;12.57;;;3.60;90.40;;;;;;10432384;28;20230;-76
2022/12/13 11:32:03;;;;;;;19.80;13.50;;;2.30;94.40;;;;;;10432592;28;20325;-78
2022/12/13 11:37:22;;;;;;;21.80;12.90;;;1.20;97.40;;;;;;10440590;28;20269;-76
2022/12/13 11:42:37;;;;;;;21.40;12.27;;;1.00;99.90;;;;;;10431892;28;20247;-77
2022/12/13 11:48:06;;;;;;;16.30;11.07;;;0.70;99.90;;;;;;10448135;28;20216;-78
2022/12/13 11:53:31;;;;;;;16.80;10.87;;;0.50;99.90;;;;;;10425900;28;20899;-77
2022/12/13 11:58:45;;;;;;;21.97;11.50;;;0.30;99.90;;;;;;10439437;28;20244;-75
2022/12/13 12:03:51;;;;;;;17.30;11.57;;;0.30;99.90;;;;;;10432956;28;20221;-76
2022/12/13 12:08:54;;;;;;;17.90;11.60;;;0.30;99.90;;;;;;10431781;28;20227;-77
2022/12/13 12:14:10;;;;;;;22.10;12.63;;;0.40;99.90;;;;;;10432391;28;20229;-77
2022/12/13 12:19:17;;;;;;;22.90;12.70;;;0.30;99.90;;;;;;10434949;28;20443;-76
2022/12/13 12:24:39;;;;;;;17.93;11.20;;;0.10;99.90;;;;;;10435730;28;20220;-77
2022/12/13 12:29:56;;;;;;;21.43;12.30;;;0.20;99.90;;;;;;10428613;28;20561;-76
2022/12/13 12:35:21;;;;;;;18.70;12.07;;;0.40;99.90;;;;;;10435483;28;20232;-73
2022/12/13 12:40:59;;;;;;;19.67;10.90;;;0.40;99.90;;;;;;10430317;28;20220;-76
2022/12/13 12:46:11;;;;;;;18.60;10.30;;;0.30;99.90;;;;;;10431895;28;20635;-78
2022/12/13 12:51:35;;;;;;;17.73;10.30;;;0.40;99.90;;;;;;10436295;28;20233;-77
2022/12/13 12:57:00;;;;;;;24.33;10.43;;;0.40;99.90;;;;;;10429544;28;20217;-77
2022/12/13 13:02:14;;;;;;;17.27;9.93;;;0.50;99.90;;;;;;10431310;28;20730;-76
2022/12/13 13:07:22;;;;;;;16.70;9.53;;;0.30;99.90;;;;;;10431712;28;20579;-76
2022/12/13 13:12:24;;;;;;;13.17;8.90;;;0.10;99.90;;;;;;10434659;28;20717;-77
2022/12/13 13:17:24;;;;;;;15.50;9.13;;;-0.10;99.90;;;;;;10430516;28;20239;-76
2022/12/13 13:22:26;;;;;;;16.43;9.33;;;-0.10;99.90;;;;;;10441509;28;20212;-76
2022/12/13 13:27:29;;;;;;;13.90;8.77;;;-0.10;99.90;;;;;;10435811;28;20221;-77
2022/12/13 13:32:30;;;;;;;15.00;8.70;;;0.00;99.90;;;;;;10435851;28;20231;-76
2022/12/13 13:37:46;;;;;;;15.63;9.47;;;0.10;99.90;;;;;;10435991;28;20216;-76
2022/12/13 13:43:04;;;;;;;14.70;8.70;;;0.20;99.90;;;;;;10427292;28;20216;-77
2022/12/13 13:48:40;;;;;;;14.13;9.43;;;0.20;99.90;;;;;;10430869;28;20220;-77
2022/12/13 13:53:58;;;;;;;14.73;8.87;;;0.10;99.90;;;;;;10435576;28;20223;-76
2022/12/13 13:59:09;;;;;;;16.57;10.07;;;0.20;99.90;;;;;;10433597;28;20212;-77
2022/12/13 14:04:58;;;;;;;13.57;9.10;;;0.30;99.90;;;;;;10434592;28;20232;-77
2022/12/13 14:10:11;;;;;;;19.43;9.97;;;0.30;99.90;;;;;;10424443;28;20282;-76
2022/12/13 14:15:57;;;;;;;17.07;9.97;;;0.40;99.90;;;;;;10431082;28;20239;-77
2022/12/13 14:21:20;;;;;;;14.43;9.77;;;0.40;99.90;;;;;;10430041;28;20209;-77
2022/12/13 14:26:50;;;;;;;16.20;9.00;;;0.30;99.90;;;;;;10428873;28;20711;-76
2022/12/13 14:31:51;;;;;;;18.80;8.77;;;0.30;99.90;;;;;;10435072;28;20252;-76
2022/12/13 14:37:00;;;;;;;15.13;9.00;;;0.20;99.90;;;;;;10432508;28;20293;-77
2022/12/13 14:42:23;;;;;;;16.30;9.20;;;0.00;99.90;;;;;;10427918;28;20327;-77
2022/12/13 14:47:24;;;;;;;14.53;8.73;;;-0.10;99.90;;;;;;10428124;28;20217;-76
2022/12/13 14:52:32;;;;;;;17.90;9.57;;;-0.20;99.90;;;;;;10429704;28;20706;-78
2022/12/13 14:57:34;;;;;;;14.10;8.20;;;-0.30;99.90;;;;;;10425714;28;20217;-76
2022/12/13 15:02:34;;;;;;;20.50;8.37;;;-0.30;99.90;;;;;;10432088;28;20228;-75
2022/12/13 15:07:40;;;;;;;16.63;8.30;;;-0.40;99.90;;;;;;10432653;28;20227;-77
2022/12/13 15:12:43;;;;;;;15.00;8.50;;;-0.50;99.90;;;;;;10424923;28;20712;-77
2022/12/13 15:17:43;;;;;;;12.97;7.73;;;-0.50;99.90;;;;;;10433087;28;20223;-77
2022/12/13 15:22:44;;;;;;;18.07;9.27;;;-0.60;99.90;;;;;;10425557;28;20216;-76
2022/12/13 15:27:49;;;;;;;18.90;8.77;;;-0.60;99.90;;;;;;10430704;28;20241;-75
2022/12/13 15:33:26;;;;;;;16.33;9.03;;;-0.70;99.90;;;;;;10422944;28;20282;-79
2022/12/13 15:38:26;;;;;;;19.23;9.97;;;-0.70;99.90;;;;;;10404023;28;20238;-77
2022/12/13 15:43:43;;;;;;;18.33;10.20;;;-0.80;99.90;;;;;;10431350;28;20284;-79
2022/12/13 15:48:43;;;;;;;15.63;9.40;;;-0.80;99.90;;;;;;10423950;28;20581;-77
2022/12/13 15:54:05;;;;;;;17.13;9.63;;;-0.80;99.90;;;;;;10431509;28;20332;-77
2022/12/13 15:59:30;;;;;;;16.27;9.13;;;-0.90;99.90;;;;;;10433522;28;20727;-77
2022/12/13 16:04:31;;;;;;;14.83;9.33;;;-1.00;99.90;;;;;;10428048;28;20213;-77
2022/12/13 16:09:36;;;;;;;15.43;8.90;;;-1.00;99.90;;;;;;10435965;28;20224;-77
2022/12/13 16:14:42;;;;;;;14.73;9.83;;;-1.00;99.90;;;;;;10443946;28;20657;-77
2022/12/13 16:19:42;;;;;;;15.13;9.30;;;-1.00;99.90;;;;;;10430593;28;20244;-77
2022/12/13 16:24:43;;;;;;;14.07;8.93;;;-1.10;99.90;;;;;;10436930;28;20251;-77
2022/12/13 16:29:44;;;;;;;16.87;9.93;;;-1.10;99.90;;;;;;10431204;28;20224;-77
2022/12/13 16:34:44;;;;;;;17.63;10.03;;;-1.10;99.90;;;;;;10438883;28;20224;-76
2022/12/13 16:39:45;;;;;;;15.87;9.80;;;-1.10;99.90;;;;;;10446359;28;20750;-76
2022/12/13 16:44:46;;;;;;;16.47;9.70;;;-1.20;99.90;;;;;;10430352;28;20725;-76
2022/12/13 16:49:48;;;;;;;16.03;9.37;;;-1.20;99.90;;;;;;10437395;28;20223;-77
2022/12/13 16:54:50;;;;;;;15.70;9.47;;;-1.30;99.90;;;;;;10431276;28;20828;-78
2022/12/13 16:59:51;;;;;;;18.30;10.77;;;-1.40;99.90;;;;;;10435491;28;20450;-75
2022/12/13 17:04:52;;;;;;;18.60;10.60;;;-1.40;99.90;;;;;;10431381;28;20254;-75
2022/12/13 17:09:52;;;;;;;20.60;10.17;;;-1.40;99.90;;;;;;10436291;28;20303;-76
2022/12/13 17:14:53;;;;;;;19.10;9.80;;;-1.50;99.90;;;;;;10437168;28;20821;-76
2022/12/13 17:19:53;;;;;;;17.87;10.57;;;-1.50;99.90;;;;;;10434864;28;20215;-76
2022/12/13 17:24:54;;;;;;;20.70;10.77;;;-1.60;99.90;;;;;;10426577;28;20307;-76
2022/12/13 17:29:58;;;;;;;19.70;11.30;;;-1.60;99.90;;;;;;10434148;28;20311;-75
2022/12/13 17:34:59;;;;;;;17.73;10.80;;;-1.60;99.90;;;;;;10433785;28;20224;-75
2022/12/13 17:39:59;;;;;;;19.60;11.20;;;-1.70;99.90;;;;;;10427657;28;20227;-76
2022/12/13 17:45:01;;;;;;;17.90;10.40;;;-1.70;99.90;;;;;;10428633;28;20860;-76
2022/12/13 17:50:02;;;;;;;19.73;11.43;;;-1.70;99.90;;;;;;10437855;28;20695;-77
2022/12/13 17:55:03;;;;;;;27.50;11.23;;;-1.60;99.90;;;;;;10430616;28;20232;-76
2022/12/13 18:00:04;;;;;;;17.10;10.93;;;-1.70;99.90;;;;;;10428196;28;20254;-76
2022/12/13 18:05:06;;;;;;;16.90;10.63;;;-1.70;99.90;;;;;;10438430;28;20212;-77
2022/12/13 18:10:08;;;;;;;20.90;11.57;;;-1.70;99.90;;;;;;10429610;28;20302;-76
2022/12/13 18:15:09;;;;;;;17.80;10.27;;;-1.70;99.90;;;;;;10434468;28;20346;-76
2022/12/13 18:20:10;;;;;;;19.67;11.50;;;-1.70;99.90;;;;;;10435411;28;20655;-76
2022/12/13 18:25:11;;;;;;;19.67;11.10;;;-1.70;99.90;;;;;;10430227;28;20223;-76
2022/12/13 18:30:11;;;;;;;14.90;10.30;;;-1.70;99.90;;;;;;10428959;28;20686;-77
2022/12/13 18:35:12;;;;;;;17.67;11.43;;;-1.60;99.90;;;;;;10432663;28;20219;-78
2022/12/13 18:40:13;;;;;;;21.97;11.40;;;-1.60;99.90;;;;;;10430043;28;20334;-76
2022/12/13 18:45:13;;;;;;;18.17;11.20;;;-1.60;99.90;;;;;;10429981;28;20219;-76
2022/12/13 18:50:14;;;;;;;22.53;11.60;;;-1.60;99.90;;;;;;10427922;28;20652;-77
2022/12/13 18:55:14;;;;;;;15.17;10.30;;;-1.60;99.90;;;;;;10424893;28;20217;-76
2022/12/13 19:00:15;;;;;;;17.97;11.07;;;-1.60;99.90;;;;;;10425056;28;20204;-76
2022/12/13 19:05:16;;;;;;;16.30;10.53;;;-1.60;99.90;;;;;;10424713;28;20177;-77
2022/12/13 19:10:17;;;;;;;19.50;10.83;;;-1.50;99.90;;;;;;10432755;28;20169;-75
2022/12/13 19:15:18;;;;;;;20.43;11.70;;;-1.50;99.90;;;;;;10429572;28;20299;-76
2022/12/13 19:20:18;;;;;;;19.27;10.67;;;-1.40;99.90;;;;;;10424507;28;20275;-77
2022/12/13 19:25:19;;;;;;;19.07;10.77;;;-1.40;99.90;;;;;;10434661;28;20184;-77
2022/12/13 19:30:22;;;;;;;20.27;10.60;;;-1.40;99.90;;;;;;10429880;28;20525;-78
2022/12/13 19:35:24;;;;;;;16.50;10.10;;;-1.40;99.90;;;;;;10426528;28;20492;-76
2022/12/13 19:40:24;;;;;;;20.37;11.23;;;-1.40;99.90;;;;;;10425230;28;20224;-76
2022/12/13 19:45:25;;;;;;;16.83;11.00;;;-1.40;99.90;;;;;;10437854;28;20215;-77
2022/12/13 19:50:27;;;;;;;19.47;10.73;;;-1.30;99.90;;;;;;10434468;28;20849;-77
2022/12/13 19:55:27;;;;;;;17.90;10.40;;;-1.30;99.90;;;;;;10438402;28;20235;-77
2022/12/13 20:00:28;;;;;;;17.47;10.03;;;-1.40;99.90;;;;;;10436951;28;20216;-78
2022/12/13 20:05:29;;;;;;;19.10;10.43;;;-1.40;99.90;;;;;;10439711;28;20817;-77
2022/12/13 20:10:29;;;;;;;17.30;9.67;;;-1.40;99.90;;;;;;10442084;28;20211;-77
2022/12/13 20:15:30;;;;;;;16.40;10.07;;;-1.40;99.90;;;;;;10439151;28;20768;-77
2022/12/13 20:20:32;;;;;;;16.47;10.27;;;-1.40;99.90;;;;;;10432514;28;20212;-77
2022/12/13 20:25:32;;;;;;;17.53;10.00;;;-1.40;99.90;;;;;;10438892;28;20269;-75
2022/12/13 20:30:33;;;;;;;17.57;10.47;;;-1.40;99.90;;;;;;10428962;28;20454;-78
2022/12/13 20:35:35;;;;;;;18.33;10.50;;;-1.30;99.90;;;;;;10438393;28;20228;-76
2022/12/13 20:40:36;;;;;;;14.93;10.23;;;-1.30;99.90;;;;;;10439013;28;20305;-78
2022/12/13 20:45:37;;;;;;;15.37;9.33;;;-1.30;99.90;;;;;;10437106;28;20215;-76
2022/12/13 20:50:37;;;;;;;16.80;9.73;;;-1.40;99.90;;;;;;10430424;28;20216;-78
2022/12/13 20:55:38;;;;;;;15.87;9.63;;;-1.50;99.90;;;;;;10436136;28;20284;-77
2022/12/13 21:00:39;;;;;;;14.53;9.10;;;-1.40;99.90;;;;;;10436233;28;20675;-77
2022/12/13 21:05:43;;;;;;;17.50;9.93;;;-1.50;99.90;;;;;;10445498;28;20247;-77
2022/12/13 21:10:43;;;;;;;13.97;8.80;;;-1.50;99.90;;;;;;10429180;28;20236;-77
2022/12/13 21:15:44;;;;;;;16.57;10.07;;;-1.50;99.90;;;;;;10436466;28;20239;-77
2022/12/13 21:20:44;;;;;;;17.57;9.80;;;-1.40;99.90;;;;;;10435688;28;20316;-77
2022/12/13 21:25:45;;;;;;;17.10;9.53;;;-1.50;99.90;;;;;;10429441;28;20220;-77
2022/12/13 21:30:45;;;;;;;15.73;9.93;;;-1.40;99.90;;;;;;10436548;28;20219;-77
2022/12/13 21:35:46;;;;;;;14.83;9.23;;;-1.50;99.90;;;;;;10436500;28;20568;-76
2022/12/13 21:40:47;;;;;;;17.23;9.77;;;-1.50;99.90;;;;;;10434632;28;20250;-76
2022/12/13 21:45:48;;;;;;;14.23;9.20;;;-1.50;99.90;;;;;;10439948;28;20204;-76
2022/12/13 21:50:49;;;;;;;14.37;9.17;;;-1.50;99.90;;;;;;10428361;28;20223;-76
2022/12/13 21:55:49;;;;;;;15.07;9.10;;;-1.50;99.90;;;;;;10434815;28;20227;-75
2022/12/13 22:00:50;;;;;;;16.00;8.90;;;-1.40;99.90;;;;;;10425690;28;20234;-76
2022/12/13 22:05:50;;;;;;;14.87;8.77;;;-1.40;99.90;;;;;;10434079;28;20690;-78
2022/12/13 22:16:10;;;;;;;17.20;9.40;;;-1.50;99.90;;;;;;10436593;28;20330;-77
2022/12/13 22:21:11;;;;;;;14.93;8.83;;;-1.50;99.90;;;;;;10430254;28;20319;-77
2022/12/13 22:26:12;;;;;;;13.03;8.53;;;-1.40;99.90;;;;;;10428694;28;20270;-76
2022/12/13 22:31:12;;;;;;;17.07;10.30;;;-1.40;99.90;;;;;;10433524;28;20223;-76
2022/12/13 22:36:13;;;;;;;11.20;8.10;;;-1.40;99.90;;;;;;10429182;28;20231;-75
2022/12/13 22:41:15;;;;;;;14.53;8.13;;;-1.40;99.90;;;;;;10429539;28;20384;-77
2022/12/13 22:46:17;;;;;;;14.63;8.10;;;-1.30;99.90;;;;;;10428698;28;20331;-76
2022/12/13 22:51:18;;;;;;;15.20;8.93;;;-1.30;99.90;;;;;;10433473;28;20261;-77
2022/12/13 22:56:21;;;;;;;15.97;10.57;;;-1.30;99.90;;;;;;10429937;28;20293;-77
2022/12/13 23:01:24;;;;;;;14.40;9.23;;;-1.30;99.90;;;;;;10427264;28;20302;-77
2022/12/13 23:06:32;;;;;;;11.43;8.00;;;-1.30;99.90;;;;;;10430997;28;20289;-77
2022/12/13 23:16:52;;;;;;;14.17;9.30;;;-1.20;99.90;;;;;;10429081;28;20223;-76
2022/12/13 23:21:53;;;;;;;15.57;10.20;;;-1.30;99.90;;;;;;10434995;28;20220;-76
2022/12/13 23:26:53;;;;;;;14.47;8.37;;;-1.20;99.90;;;;;;10440105;28;20307;-77
2022/12/13 23:31:54;;;;;;;12.13;8.30;;;-1.20;99.90;;;;;;10434561;28;20200;-76
2022/12/13 23:36:54;;;;;;;11.80;8.23;;;-1.10;99.90;;;;;;10442815;28;20214;-75
2022/12/13 23:41:55;;;;;;;16.77;9.57;;;-1.20;99.90;;;;;;10438540;28;20216;-75
2022/12/13 23:46:55;;;;;;;14.67;8.30;;;-1.10;99.90;;;;;;10433393;28;20220;-75
2022/12/13 23:51:56;;;;;;;11.50;7.37;;;-1.20;99.90;;;;;;10436522;28;20207;-77
2022/12/13 23:56:56;;;;;;;13.53;7.90;;;-1.10;99.90;;;;;;10433795;28;20266;-77
